Time;durP1;ratioP1;P1;durP2;ratioP2;P2;SDS_P1;SDS_P2;PMS_P1;PMS_P2;Temp;Humidity;BMP_temperature;BMP_pressure;BME280_temperature;BME280_humidity;BME280_pressure;Samples;Min_cycle;Max_cycle;Signal;HPM_P1;HPM_P2
2022/12/18 00:01:20;;;;;;;26.37;17.53;;;0.20;24.70;;;;;;5118605;28;20214;-78
2022/12/18 00:03:47;;;;;;;25.53;17.60;;;0.20;23.10;;;;;;5095558;28;20565;-79
2022/12/18 00:06:13;;;;;;;25.50;17.80;;;0.10;22.70;;;;;;5113767;28;20600;-80
2022/12/18 00:08:40;;;;;;;36.53;21.90;;;0.20;22.80;;;;;;5113682;28;20207;-78
2022/12/18 00:11:07;;;;;;;39.73;24.70;;;0.10;20.60;;;;;;5114162;28;20163;-80
2022/12/18 00:13:33;;;;;;;38.30;25.37;;;-0.10;21.40;;;;;;5113194;28;20631;-79
2022/12/18 00:16:03;;;;;;;38.53;25.30;;;-0.30;25.80;;;;;;5113862;28;20178;-79
2022/12/18 00:18:29;;;;;;;39.77;25.47;;;-0.30;29.70;;;;;;5113528;28;20167;-79
2022/12/18 00:20:59;;;;;;;40.87;25.23;;;-0.40;33.90;;;;;;5113761;28;20798;-79
2022/12/18 00:23:24;;;;;;;40.23;24.80;;;-0.40;34.50;;;;;;5095267;28;20162;-80
2022/12/18 00:25:50;;;;;;;39.90;26.53;;;-0.30;35.10;;;;;;5114164;28;20174;-80
2022/12/18 00:28:16;;;;;;;37.47;23.43;;;-0.40;34.00;;;;;;5113974;28;20212;-80
2022/12/18 00:30:41;;;;;;;40.23;25.97;;;-0.60;35.60;;;;;;5113815;28;20246;-78
2022/12/18 00:33:07;;;;;;;39.33;25.10;;;-0.70;38.40;;;;;;5113891;28;20575;-78
2022/12/18 00:35:33;;;;;;;41.97;27.30;;;-0.70;41.70;;;;;;5113762;28;20181;-80
2022/12/18 00:37:58;;;;;;;41.70;26.00;;;-0.60;42.40;;;;;;5113169;28;20195;-78
2022/12/18 00:40:24;;;;;;;40.07;25.80;;;-0.50;42.40;;;;;;5114236;28;20170;-79
2022/12/18 00:42:55;;;;;;;39.60;25.37;;;-0.30;41.00;;;;;;5113229;28;20182;-79
2022/12/18 00:45:22;;;;;;;38.33;25.60;;;-0.30;38.70;;;;;;5114100;28;20167;-79
2022/12/18 00:47:48;;;;;;;40.57;26.17;;;-0.10;38.30;;;;;;5095501;28;20175;-79
2022/12/18 00:50:14;;;;;;;35.97;24.97;;;0.00;35.10;;;;;;5095358;28;20575;-79
2022/12/18 00:52:39;;;;;;;31.83;22.03;;;0.10;31.90;;;;;;5113829;28;20220;-79
2022/12/18 00:55:06;;;;;;;29.90;19.30;;;0.10;30.50;;;;;;5114585;28;20168;-79
2022/12/18 00:57:31;;;;;;;28.37;20.37;;;0.10;27.00;;;;;;5113613;28;20179;-80
2022/12/18 00:59:57;;;;;;;30.77;20.73;;;0.00;24.80;;;;;;5095506;28;20523;-79
2022/12/18 01:02:23;;;;;;;28.40;18.63;;;0.00;23.20;;;;;;5113334;28;20244;-78
2022/12/18 01:04:48;;;;;;;28.53;19.93;;;0.00;23.30;;;;;;5113235;28;20155;-79
2022/12/18 01:07:14;;;;;;;26.83;18.30;;;0.10;23.30;;;;;;5113103;28;20179;-79
2022/12/18 01:09:40;;;;;;;23.33;17.17;;;0.20;21.00;;;;;;5113319;28;20167;-78
2022/12/18 01:12:06;;;;;;;22.40;16.23;;;0.20;18.10;;;;;;5094246;28;20654;-78
2022/12/18 01:14:31;;;;;;;23.57;15.93;;;0.10;16.00;;;;;;5113217;28;20167;-80
2022/12/18 01:16:57;;;;;;;21.37;14.37;;;0.30;15.10;;;;;;5095126;28;20650;-80
2022/12/18 01:19:23;;;;;;;21.67;14.37;;;0.20;10.30;;;;;;5113426;28;20261;-78
2022/12/18 01:21:49;;;;;;;18.90;13.43;;;0.10;2.80;;;;;;5116210;28;20310;-79
2022/12/18 01:24:15;;;;;;;18.93;13.00;;;0.00;1.00;;;;;;5098572;28;20619;-79
2022/12/18 01:26:41;;;;;;;21.13;14.47;;;-0.10;1.00;;;;;;5098284;28;20670;-79
2022/12/18 01:29:06;;;;;;;23.83;16.23;;;-0.10;1.00;;;;;;5116784;28;20538;-80
2022/12/18 01:31:33;;;;;;;28.23;19.90;;;-0.10;1.00;;;;;;5098490;28;20171;-80
2022/12/18 01:34:04;;;;;;;27.70;17.50;;;-0.20;1.00;;;;;;5098292;28;20178;-77
2022/12/18 01:36:32;;;;;;;28.70;19.20;;;-0.10;1.00;;;;;;5116655;28;20250;-79
2022/12/18 01:39:10;;;;;;;26.93;17.20;;;-0.20;6.00;;;;;;5116277;28;20731;-80
2022/12/18 01:44:58;;;;;;;15.93;12.33;;;-0.30;7.90;;;;;;5116969;28;20178;-77
2022/12/18 01:47:33;;;;;;;20.77;12.73;;;-0.40;1.00;;;;;;5098866;28;20166;-78
2022/12/18 01:50:06;;;;;;;16.80;11.83;;;-0.40;1.00;;;;;;5098676;28;20180;-78
2022/12/18 01:52:33;;;;;;;17.17;11.97;;;-0.50;1.00;;;;;;5098039;28;20684;-79
2022/12/18 01:55:00;;;;;;;17.13;11.13;;;-0.30;1.00;;;;;;5115943;28;20175;-79
2022/12/18 01:57:27;;;;;;;17.87;12.63;;;-0.30;1.00;;;;;;5115999;28;20572;-80
2022/12/18 01:59:59;;;;;;;20.53;13.70;;;-0.30;1.00;;;;;;5098791;28;20179;-79
2022/12/18 02:02:29;;;;;;;19.80;13.53;;;0.00;1.00;;;;;;5097841;28;20608;-77
2022/12/18 02:04:55;;;;;;;21.40;14.27;;;-0.30;1.00;;;;;;5097699;28;20580;-80
2022/12/18 02:07:34;;;;;;;24.23;15.93;;;-0.20;1.00;;;;;;5120292;28;20171;-78
2022/12/18 02:10:21;;;;;;;22.57;16.00;;;-0.20;1.00;;;;;;5137359;28;20257;-79
2022/12/18 02:13:07;;;;;;;26.33;17.00;;;-0.30;1.00;;;;;;5139043;28;20212;-78
2022/12/18 02:15:37;;;;;;;24.53;17.30;;;-0.40;1.00;;;;;;5117023;28;20200;-79
2022/12/18 02:18:15;;;;;;;27.17;17.83;;;-0.50;2.50;;;;;;5129549;28;20144;-78
2022/12/18 02:21:01;;;;;;;28.97;18.10;;;-0.50;7.00;;;;;;5139101;28;20190;-79
2022/12/18 02:23:55;;;;;;;29.20;18.03;;;-0.40;7.60;;;;;;5139604;28;20173;-79
2022/12/18 02:26:50;;;;;;;28.93;18.20;;;-0.40;7.50;;;;;;5087619;28;20667;-79
2022/12/18 02:29:29;;;;;;;25.67;17.63;;;-0.50;10.20;;;;;;5116239;28;20186;-79
2022/12/18 02:32:03;;;;;;;24.63;17.27;;;-0.50;12.00;;;;;;5100631;28;20171;-78
2022/12/18 02:34:36;;;;;;;27.83;18.37;;;-0.70;11.80;;;;;;5127129;28;20179;-78
2022/12/18 02:37:05;;;;;;;26.93;17.53;;;-0.70;15.20;;;;;;5130532;28;20230;-79
2022/12/18 02:39:33;;;;;;;27.80;17.27;;;-1.00;15.40;;;;;;5097540;28;20167;-79
2022/12/18 02:42:02;;;;;;;24.93;17.27;;;-1.10;21.00;;;;;;5115357;28;20206;-80
2022/12/18 02:44:27;;;;;;;29.27;18.83;;;-1.20;24.70;;;;;;5096941;28;20220;-79
2022/12/18 02:46:54;;;;;;;28.73;18.10;;;-1.20;27.50;;;;;;5115315;28;20684;-79
2022/12/18 02:49:50;;;;;;;28.60;18.07;;;-1.50;28.60;;;;;;5115070;28;20250;-80
2022/12/18 02:52:34;;;;;;;28.37;18.53;;;-1.50;35.30;;;;;;5096567;28;20175;-79
2022/12/18 02:55:24;;;;;;;29.47;18.00;;;-1.50;38.30;;;;;;5114558;28;20171;-81
2022/12/18 02:58:02;;;;;;;29.37;19.23;;;-1.40;41.30;;;;;;5114865;28;20163;-78
2022/12/18 03:00:37;;;;;;;27.33;18.47;;;-1.40;40.30;;;;;;5114378;28;20173;-79
2022/12/18 03:03:22;;;;;;;30.40;18.97;;;-1.50;43.00;;;;;;5096602;28;20170;-79
2022/12/18 03:05:53;;;;;;;26.37;17.60;;;-1.50;45.70;;;;;;5114586;28;20171;-78
2022/12/18 03:08:27;;;;;;;27.77;17.17;;;-1.60;44.00;;;;;;5114783;28;20179;-79
2022/12/18 03:11:05;;;;;;;26.67;17.20;;;-1.60;44.00;;;;;;5096410;28;20171;-78
2022/12/18 03:13:40;;;;;;;27.47;16.30;;;-1.70;43.90;;;;;;5114661;28;20187;-78
2022/12/18 03:16:10;;;;;;;25.87;16.63;;;-1.70;42.70;;;;;;5114632;28;20163;-79
2022/12/18 03:18:43;;;;;;;25.20;16.33;;;-1.50;39.80;;;;;;5121641;28;20240;-79
2022/12/18 03:21:11;;;;;;;27.23;17.57;;;-1.50;35.00;;;;;;5130541;28;20194;-77
2022/12/18 03:23:42;;;;;;;28.80;18.97;;;-1.50;32.60;;;;;;5119915;28;20170;-80
2022/12/18 03:26:10;;;;;;;23.77;16.63;;;-1.40;32.50;;;;;;5096032;28;20179;-79
2022/12/18 03:28:40;;;;;;;24.50;16.20;;;-1.50;32.90;;;;;;5114301;28;20175;-80
2022/12/18 03:31:13;;;;;;;25.63;16.37;;;-1.70;30.80;;;;;;5114334;28;20189;-79
2022/12/18 03:33:46;;;;;;;25.73;15.30;;;-1.80;31.80;;;;;;5096046;28;20175;-77
2022/12/18 03:36:12;;;;;;;23.20;15.10;;;-1.80;33.10;;;;;;5095671;28;20635;-78
2022/12/18 03:38:38;;;;;;;21.03;14.07;;;-1.70;33.70;;;;;;5113955;28;20195;-79
2022/12/18 03:41:27;;;;;;;21.47;14.03;;;-1.70;31.10;;;;;;5113945;28;20294;-79
2022/12/18 03:44:03;;;;;;;21.07;14.57;;;-1.60;29.30;;;;;;5113516;28;20198;-80
2022/12/18 03:47:02;;;;;;;22.00;13.50;;;-1.40;27.40;;;;;;5113904;28;20158;-79
2022/12/18 03:49:52;;;;;;;19.43;13.23;;;-1.40;24.80;;;;;;5086011;28;20653;-78
2022/12/18 03:52:26;;;;;;;21.37;14.07;;;-1.40;23.50;;;;;;5095422;28;20179;-79
2022/12/18 03:54:55;;;;;;;20.53;14.03;;;-1.40;23.40;;;;;;5114022;28;20167;-78
2022/12/18 03:57:24;;;;;;;23.27;14.00;;;-1.40;23.20;;;;;;5114095;28;20175;-77
2022/12/18 03:59:55;;;;;;;20.07;13.90;;;-1.20;23.60;;;;;;5114283;28;20167;-79
2022/12/18 04:02:24;;;;;;;23.37;14.73;;;-1.40;20.10;;;;;;5113733;28;20202;-79
2022/12/18 04:04:53;;;;;;;21.67;14.10;;;-1.40;22.00;;;;;;5113864;28;20170;-79
2022/12/18 04:07:20;;;;;;;21.80;13.23;;;-1.60;23.20;;;;;;5113562;28;20174;-78
2022/12/18 04:09:48;;;;;;;21.77;14.13;;;-1.70;25.70;;;;;;5114464;28;20163;-77
2022/12/18 04:12:13;;;;;;;20.73;13.97;;;-1.70;26.50;;;;;;5113473;28;20195;-77
2022/12/18 04:14:39;;;;;;;19.97;13.13;;;-1.70;25.10;;;;;;5095432;28;20171;-78
2022/12/18 04:17:05;;;;;;;21.10;13.93;;;-1.80;24.40;;;;;;5113669;28;20200;-77
2022/12/18 04:19:30;;;;;;;20.20;13.73;;;-1.80;24.50;;;;;;5095650;28;20167;-78
2022/12/18 04:21:56;;;;;;;20.20;14.07;;;-1.70;25.60;;;;;;5113750;28;20210;-78
2022/12/18 04:24:22;;;;;;;18.87;13.13;;;-1.70;24.70;;;;;;5114102;28;20163;-77
2022/12/18 04:26:47;;;;;;;17.83;12.80;;;-1.80;24.00;;;;;;5113807;28;20178;-79
2022/12/18 04:29:13;;;;;;;21.63;14.87;;;-1.70;24.20;;;;;;5113903;28;20533;-78
2022/12/18 04:31:39;;;;;;;19.70;13.43;;;-1.80;23.80;;;;;;5121991;28;20179;-79
2022/12/18 04:34:04;;;;;;;23.10;13.87;;;-1.70;24.60;;;;;;5107201;28;20179;-78
2022/12/18 04:36:30;;;;;;;19.33;13.00;;;-2.00;24.80;;;;;;5121552;28;20546;-79
2022/12/18 04:38:56;;;;;;;20.07;13.37;;;-2.20;27.20;;;;;;5113746;28;20680;-79
2022/12/18 04:41:22;;;;;;;19.97;13.97;;;-2.10;30.00;;;;;;5115195;28;20218;-79
2022/12/18 04:43:47;;;;;;;21.27;13.77;;;-2.20;33.40;;;;;;5114485;28;20175;-79
2022/12/18 04:46:13;;;;;;;21.20;13.90;;;-2.20;34.80;;;;;;5096724;28;20615;-78
2022/12/18 04:48:38;;;;;;;19.00;13.43;;;-2.30;36.30;;;;;;5113828;28;20607;-78
2022/12/18 04:51:05;;;;;;;22.40;13.60;;;-2.30;37.70;;;;;;5116043;28;20179;-79
2022/12/18 04:53:31;;;;;;;21.87;13.97;;;-2.30;36.80;;;;;;5124380;28;20254;-78
2022/12/18 04:56:12;;;;;;;19.43;12.83;;;-2.40;34.30;;;;;;5137294;28;20174;-79
2022/12/18 04:58:40;;;;;;;23.60;14.53;;;-2.50;36.20;;;;;;5136984;28;20178;-79
2022/12/18 05:01:08;;;;;;;22.33;14.43;;;-2.40;37.80;;;;;;5138890;28;20198;-78
2022/12/18 05:03:34;;;;;;;22.83;14.27;;;-2.30;39.10;;;;;;5135299;28;20259;-78
2022/12/18 05:06:02;;;;;;;23.13;15.10;;;-2.60;40.80;;;;;;5122227;28;20208;-79
2022/12/18 05:09:10;;;;;;;21.17;13.10;;;-2.60;44.00;;;;;;5099335;28;20178;-79
2022/12/18 05:11:36;;;;;;;22.43;13.53;;;-2.60;44.20;;;;;;5116875;28;20559;-79
2022/12/18 05:14:01;;;;;;;21.60;12.77;;;-2.60;45.10;;;;;;5116915;28;20174;-79
2022/12/18 05:16:27;;;;;;;21.77;14.03;;;-2.50;45.10;;;;;;5116959;28;20174;-77
2022/12/18 05:18:53;;;;;;;20.77;13.47;;;-2.60;44.30;;;;;;5116493;28;20182;-79
2022/12/18 05:21:18;;;;;;;22.97;12.53;;;-2.50;46.60;;;;;;5116596;28;20195;-79
2022/12/18 05:23:44;;;;;;;21.47;12.90;;;-2.40;46.10;;;;;;5116571;28;20167;-79
2022/12/18 05:26:16;;;;;;;20.40;13.63;;;-2.50;44.80;;;;;;5116613;28;20220;-79
2022/12/18 05:28:42;;;;;;;20.23;12.80;;;-2.50;45.70;;;;;;5116553;28;20241;-78
2022/12/18 05:31:09;;;;;;;21.93;13.47;;;-2.40;44.80;;;;;;5116355;28;20640;-78
2022/12/18 05:33:35;;;;;;;20.53;12.43;;;-2.30;43.40;;;;;;5097968;28;20649;-80
2022/12/18 05:36:03;;;;;;;20.93;13.93;;;-2.20;41.50;;;;;;5116417;28;20199;-79
2022/12/18 05:38:30;;;;;;;17.27;11.27;;;-2.10;37.20;;;;;;5116275;28;20191;-78
2022/12/18 05:40:56;;;;;;;17.70;12.73;;;-2.10;32.70;;;;;;5116126;28;20190;-80
2022/12/18 05:43:23;;;;;;;22.57;13.50;;;-2.00;29.30;;;;;;5097982;28;20171;-79
2022/12/18 05:45:50;;;;;;;19.43;13.03;;;-1.90;27.90;;;;;;5116302;28;20217;-77
2022/12/18 05:48:17;;;;;;;19.03;13.60;;;-1.80;27.10;;;;;;5116517;28;20240;-79
2022/12/18 05:50:45;;;;;;;19.60;12.43;;;-1.80;25.30;;;;;;5116129;28;20664;-78
2022/12/18 05:53:11;;;;;;;19.90;12.43;;;-1.90;22.50;;;;;;5097561;28;20167;-78
2022/12/18 05:55:39;;;;;;;18.87;12.57;;;-1.90;22.80;;;;;;5116123;28;20186;-78
2022/12/18 05:58:06;;;;;;;20.27;12.63;;;-1.80;21.40;;;;;;5116006;28;20180;-80
2022/12/18 06:00:35;;;;;;;19.37;12.83;;;-1.70;21.30;;;;;;5115907;28;20246;-79
2022/12/18 06:03:01;;;;;;;18.87;11.87;;;-1.70;20.60;;;;;;5115530;28;20250;-79
2022/12/18 06:05:27;;;;;;;17.97;11.63;;;-1.50;20.70;;;;;;5115797;28;20216;-79
2022/12/18 06:07:53;;;;;;;17.10;12.07;;;-1.30;19.20;;;;;;5115220;28;20179;-79
2022/12/18 06:10:19;;;;;;;18.70;11.77;;;-1.60;15.80;;;;;;5115627;28;20232;-78
2022/12/18 06:12:45;;;;;;;20.67;12.57;;;-1.50;16.40;;;;;;5097281;28;20179;-79
2022/12/18 06:15:10;;;;;;;23.53;13.67;;;-1.50;15.50;;;;;;5115715;28;20167;-78
2022/12/18 06:17:36;;;;;;;21.60;12.80;;;-1.60;14.20;;;;;;5115484;28;20159;-78
2022/12/18 06:20:03;;;;;;;20.10;12.00;;;-1.60;13.70;;;;;;5115743;28;20245;-79
2022/12/18 06:22:31;;;;;;;17.13;11.63;;;-1.60;12.20;;;;;;5097264;28;20294;-79
2022/12/18 06:24:57;;;;;;;19.27;12.50;;;-1.60;11.90;;;;;;5115388;28;20288;-79
2022/12/18 06:27:22;;;;;;;18.53;11.97;;;-1.60;12.50;;;;;;5115384;28;20167;-78
2022/12/18 06:29:48;;;;;;;17.93;11.47;;;-1.50;13.40;;;;;;5115672;28;20170;-78
2022/12/18 06:32:14;;;;;;;16.50;11.40;;;-1.60;12.10;;;;;;5115315;28;20163;-79
2022/12/18 06:34:40;;;;;;;19.03;12.10;;;-1.50;13.80;;;;;;5097743;28;20231;-79
2022/12/18 06:37:05;;;;;;;17.57;11.03;;;-1.60;12.90;;;;;;5127302;28;20184;-77
2022/12/18 06:39:31;;;;;;;16.50;11.17;;;-1.40;11.60;;;;;;5112776;28;20210;-77
2022/12/18 06:41:57;;;;;;;14.93;9.87;;;-1.20;11.50;;;;;;5128714;28;20207;-78
2022/12/18 06:44:22;;;;;;;15.43;10.00;;;-1.00;8.80;;;;;;5097136;28;20170;-78
2022/12/18 06:46:48;;;;;;;15.10;10.00;;;-0.90;5.80;;;;;;5114819;28;20159;-79
2022/12/18 06:49:14;;;;;;;15.50;10.67;;;-1.00;1.10;;;;;;5115206;28;20167;-80
2022/12/18 06:51:39;;;;;;;16.73;11.73;;;-1.00;1.00;;;;;;5123311;28;20171;-78
2022/12/18 06:54:05;;;;;;;15.97;10.53;;;-1.00;1.00;;;;;;5139372;28;20155;-77
2022/12/18 06:56:31;;;;;;;17.60;10.50;;;-0.90;1.00;;;;;;5139859;28;20189;-77
2022/12/18 06:58:56;;;;;;;11.27;7.50;;;-0.70;1.00;;;;;;5119815;28;20163;-80
2022/12/18 07:01:22;;;;;;;10.23;7.20;;;-0.80;1.00;;;;;;5115512;28;20203;-80
2022/12/18 07:03:53;;;;;;;10.67;7.03;;;-0.80;1.00;;;;;;5115231;28;20488;-79
2022/12/18 07:06:21;;;;;;;9.97;6.50;;;-0.90;1.00;;;;;;5115002;28;20171;-80
2022/12/18 07:08:48;;;;;;;9.03;6.70;;;-0.80;1.00;;;;;;5114735;28;20167;-80
2022/12/18 07:11:15;;;;;;;11.10;6.57;;;-0.80;1.00;;;;;;5096247;28;20636;-80
2022/12/18 07:13:40;;;;;;;8.83;6.90;;;-0.70;1.00;;;;;;5114530;28;20634;-80
2022/12/18 07:16:13;;;;;;;9.47;6.40;;;-0.70;1.00;;;;;;5114817;28;20222;-80
2022/12/18 07:18:39;;;;;;;11.87;7.70;;;-0.50;1.00;;;;;;5115011;28;20523;-78
2022/12/18 07:21:10;;;;;;;9.90;7.13;;;-0.60;1.00;;;;;;5115170;28;20198;-80
2022/12/18 07:23:36;;;;;;;10.83;6.73;;;-0.40;1.00;;;;;;5118957;28;20166;-79
2022/12/18 07:26:08;;;;;;;11.63;7.33;;;-0.40;1.00;;;;;;5123778;28;20167;-79
2022/12/18 07:28:36;;;;;;;9.60;6.50;;;-0.60;1.00;;;;;;5124819;28;20175;-78
2022/12/18 07:31:14;;;;;;;10.47;7.03;;;-0.70;1.00;;;;;;5101259;28;20171;-80
2022/12/18 07:33:46;;;;;;;9.67;6.87;;;-1.00;1.00;;;;;;5133695;28;20178;-79
2022/12/18 07:36:12;;;;;;;12.47;7.03;;;-1.20;1.00;;;;;;5118145;28;20171;-77
2022/12/18 07:38:38;;;;;;;10.43;7.20;;;-1.20;1.00;;;;;;5115452;28;20693;-78
2022/12/18 07:41:10;;;;;;;9.63;6.30;;;-1.20;1.00;;;;;;5117871;28;20211;-77
2022/12/18 07:43:43;;;;;;;10.27;6.83;;;-1.10;1.00;;;;;;5114458;28;20163;-80
2022/12/18 07:46:10;;;;;;;10.57;6.80;;;-1.20;1.00;;;;;;5114422;28;20534;-78
2022/12/18 07:48:36;;;;;;;8.03;5.50;;;-1.10;1.00;;;;;;5096298;28;20205;-81
2022/12/18 07:51:04;;;;;;;8.83;6.53;;;-1.10;1.00;;;;;;5114008;28;20195;-81
2022/12/18 07:53:30;;;;;;;9.87;7.00;;;-1.00;1.00;;;;;;5113936;28;20194;-80
2022/12/18 07:55:57;;;;;;;10.00;6.33;;;-0.70;1.00;;;;;;5114199;28;20346;-81
2022/12/18 07:58:24;;;;;;;9.80;6.90;;;-0.70;1.00;;;;;;5095146;28;20170;-81
2022/12/18 08:00:50;;;;;;;9.93;7.23;;;-0.70;1.00;;;;;;5113767;28;20331;-80
2022/12/18 08:03:16;;;;;;;10.60;7.17;;;-0.50;1.00;;;;;;5113776;28;20216;-78
2022/12/18 08:05:41;;;;;;;10.70;7.13;;;-0.30;1.00;;;;;;5095749;28;20710;-79
2022/12/18 08:08:07;;;;;;;10.77;6.67;;;-0.50;1.00;;;;;;5095368;28;20202;-79
2022/12/18 08:10:33;;;;;;;9.67;6.90;;;-0.40;1.00;;;;;;5113750;28;20182;-79
2022/12/18 08:12:58;;;;;;;10.50;7.10;;;-0.50;1.00;;;;;;5113196;28;20677;-79
2022/12/18 08:15:24;;;;;;;9.13;6.57;;;-0.40;1.00;;;;;;5113807;28;20167;-79
2022/12/18 08:17:49;;;;;;;10.97;7.43;;;-0.30;1.00;;;;;;5113663;28;20173;-78
2022/12/18 08:20:16;;;;;;;9.73;6.97;;;-0.30;1.00;;;;;;5113769;28;20215;-79
2022/12/18 08:22:42;;;;;;;8.97;6.80;;;-0.30;1.00;;;;;;5094831;28;20202;-79
2022/12/18 08:25:08;;;;;;;11.03;7.27;;;-0.20;1.00;;;;;;5113605;28;20163;-80
2022/12/18 08:27:33;;;;;;;10.60;7.77;;;-0.10;1.00;;;;;;5095129;28;20696;-78
2022/12/18 08:29:59;;;;;;;10.20;7.73;;;0.00;1.00;;;;;;5115748;28;20171;-79
2022/12/18 08:32:26;;;;;;;9.53;6.60;;;0.00;1.00;;;;;;5099163;28;20665;-79
2022/12/18 08:34:52;;;;;;;10.23;7.40;;;0.10;1.00;;;;;;5099234;28;20177;-79
2022/12/18 08:37:17;;;;;;;8.17;6.60;;;0.20;1.00;;;;;;5117192;28;20207;-79
2022/12/18 08:39:43;;;;;;;10.07;7.30;;;0.10;1.00;;;;;;5117518;28;20680;-79
2022/12/18 08:44:53;;;;;;;9.53;6.97;;;0.10;1.00;;;;;;5117633;28;20178;-78
2022/12/18 08:47:19;;;;;;;9.40;6.90;;;0.10;1.00;;;;;;5117673;28;20167;-79
2022/12/18 08:49:44;;;;;;;11.73;7.50;;;0.20;1.00;;;;;;5118651;28;20679;-79
2022/12/18 08:52:10;;;;;;;11.03;8.13;;;0.30;1.00;;;;;;5117903;28;20186;-79
2022/12/18 08:54:36;;;;;;;10.40;7.20;;;0.40;1.00;;;;;;5098888;28;20171;-78
2022/12/18 08:57:02;;;;;;;10.93;7.60;;;0.20;1.00;;;;;;5117049;28;20167;-79
2022/12/18 08:59:28;;;;;;;9.50;6.87;;;0.50;1.00;;;;;;5117229;28;20167;-79
2022/12/18 09:01:55;;;;;;;12.27;8.27;;;0.50;1.00;;;;;;5098598;28;20247;-79
2022/12/18 09:04:21;;;;;;;11.50;8.93;;;0.50;1.00;;;;;;5117280;28;20159;-79
2022/12/18 09:06:47;;;;;;;10.13;7.03;;;0.80;1.00;;;;;;5117280;28;20564;-79
2022/12/18 09:09:13;;;;;;;11.60;8.10;;;0.90;1.00;;;;;;5118765;28;20171;-81
2022/12/18 09:11:39;;;;;;;10.07;7.37;;;0.90;1.00;;;;;;5129310;28;20212;-80
2022/12/18 09:14:04;;;;;;;13.13;8.87;;;1.10;1.00;;;;;;5138290;28;20170;-79
2022/12/18 09:16:31;;;;;;;11.20;7.63;;;1.00;1.00;;;;;;5123081;28;20678;-79
2022/12/18 09:19:01;;;;;;;11.73;8.47;;;1.10;1.00;;;;;;5103777;28;20163;-80
2022/12/18 09:21:30;;;;;;;11.33;7.43;;;1.20;1.00;;;;;;5119630;28;20203;-82
2022/12/18 09:23:58;;;;;;;11.97;8.57;;;1.10;1.00;;;;;;5099939;28;20170;-81
2022/12/18 09:26:25;;;;;;;10.07;7.60;;;1.20;1.00;;;;;;5117981;28;20167;-79
2022/12/18 09:28:52;;;;;;;12.80;7.83;;;1.30;1.00;;;;;;5117826;28;20171;-81
2022/12/18 09:31:21;;;;;;;12.33;8.03;;;1.40;1.00;;;;;;5117785;28;20174;-80
2022/12/18 09:33:47;;;;;;;12.90;9.00;;;1.40;1.00;;;;;;5117290;28;20644;-78
2022/12/18 09:36:15;;;;;;;12.07;9.13;;;1.50;1.00;;;;;;5100074;28;20269;-80
2022/12/18 09:38:42;;;;;;;12.87;8.50;;;1.60;1.00;;;;;;5117786;28;20293;-80
2022/12/18 09:41:23;;;;;;;12.13;8.50;;;1.60;1.00;;;;;;5118170;28;20210;-80
2022/12/18 09:43:52;;;;;;;12.73;8.50;;;1.60;1.00;;;;;;5121899;28;20167;-81
2022/12/18 09:46:30;;;;;;;11.37;8.43;;;1.80;1.00;;;;;;5122400;28;20675;-79
2022/12/18 09:49:00;;;;;;;11.47;8.27;;;1.80;1.00;;;;;;5122254;28;20163;-79
2022/12/18 09:51:32;;;;;;;17.13;12.30;;;1.80;1.00;;;;;;5111336;28;20174;-77
2022/12/18 09:54:06;;;;;;;12.03;8.73;;;1.80;1.00;;;;;;5132470;28;20155;-79
2022/12/18 09:56:36;;;;;;;11.00;8.33;;;1.80;1.00;;;;;;5111544;28;20619;-81
2022/12/18 09:59:04;;;;;;;12.47;8.97;;;1.80;1.00;;;;;;5119600;28;20174;-79
2022/12/18 10:01:33;;;;;;;12.40;9.20;;;1.90;1.00;;;;;;5117423;28;20283;-81
2022/12/18 10:03:59;;;;;;;11.27;9.17;;;1.90;1.00;;;;;;5132009;28;20159;-79
2022/12/18 10:06:40;;;;;;;13.70;9.83;;;2.00;1.00;;;;;;5128945;28;20192;-80
2022/12/18 10:09:30;;;;;;;13.60;8.90;;;2.10;1.00;;;;;;5116776;28;20171;-80
2022/12/18 10:12:13;;;;;;;13.73;9.20;;;2.10;1.00;;;;;;5117033;28;20181;-79
2022/12/18 10:15:00;;;;;;;12.13;8.80;;;2.20;1.00;;;;;;5117501;28;20154;-81
2022/12/18 10:17:47;;;;;;;12.67;8.73;;;2.10;1.00;;;;;;5117426;28;20247;-79
2022/12/18 10:20:40;;;;;;;14.40;9.93;;;2.10;1.00;;;;;;5116321;28;20368;-79
2022/12/18 10:23:18;;;;;;;12.33;9.27;;;2.20;1.00;;;;;;5117233;28;20379;-81
2022/12/18 10:26:05;;;;;;;16.00;10.37;;;2.30;1.00;;;;;;5100954;28;20163;-81
2022/12/18 10:28:35;;;;;;;23.93;11.53;;;2.40;1.00;;;;;;5116927;28;20654;-79
2022/12/18 10:31:00;;;;;;;19.43;11.40;;;2.50;1.00;;;;;;5120843;28;20163;-78
2022/12/18 10:33:32;;;;;;;17.23;12.53;;;2.50;1.00;;;;;;5102414;28;20178;-79
2022/12/18 10:35:58;;;;;;;15.50;11.23;;;2.60;1.00;;;;;;5116281;28;20159;-80
2022/12/18 10:38:29;;;;;;;15.30;11.63;;;2.70;1.00;;;;;;5116600;28;20199;-80
2022/12/18 10:41:00;;;;;;;15.60;10.37;;;2.60;1.00;;;;;;5099820;28;20198;-78
2022/12/18 10:43:36;;;;;;;15.77;10.97;;;2.50;1.00;;;;;;5117929;28;20174;-81
2022/12/18 10:46:02;;;;;;;14.10;9.73;;;2.50;1.00;;;;;;5117984;28;20174;-79
2022/12/18 10:48:29;;;;;;;13.27;9.60;;;2.50;1.00;;;;;;5118637;28;20170;-79
2022/12/18 10:50:56;;;;;;;14.57;10.77;;;2.40;1.00;;;;;;5119150;28;20698;-80
2022/12/18 10:53:25;;;;;;;14.63;10.40;;;2.50;1.00;;;;;;5118865;28;20178;-78
2022/12/18 10:55:54;;;;;;;12.70;9.33;;;2.50;1.00;;;;;;5118919;28;20631;-80
2022/12/18 10:58:25;;;;;;;15.07;10.07;;;2.50;1.00;;;;;;5100580;28;20175;-80
2022/12/18 11:01:07;;;;;;;15.83;10.00;;;2.20;1.00;;;;;;5099366;28;20213;-79
2022/12/18 11:03:37;;;;;;;16.67;10.37;;;2.20;1.00;;;;;;5100166;28;20228;-81
2022/12/18 11:06:05;;;;;;;15.83;11.00;;;2.20;1.00;;;;;;5099008;28;20175;-78
2022/12/18 11:08:30;;;;;;;12.73;9.60;;;2.10;1.00;;;;;;5098395;28;20544;-81
2022/12/18 11:10:56;;;;;;;13.63;10.07;;;2.00;1.00;;;;;;5116959;28;20223;-81
2022/12/18 11:13:27;;;;;;;16.57;10.27;;;1.90;1.00;;;;;;5116333;28;20189;-80
2022/12/18 11:15:53;;;;;;;13.03;9.33;;;1.90;1.00;;;;;;5116485;28;20162;-81
2022/12/18 11:18:29;;;;;;;14.80;10.13;;;2.00;1.00;;;;;;5117428;28;20167;-81
2022/12/18 11:21:07;;;;;;;14.60;10.13;;;2.10;1.00;;;;;;5098594;28;20205;-80
2022/12/18 11:23:34;;;;;;;16.97;10.43;;;2.00;1.00;;;;;;5098922;28;20197;-79
2022/12/18 11:26:03;;;;;;;14.80;10.43;;;2.00;1.00;;;;;;5117630;28;20163;-82
2022/12/18 11:28:37;;;;;;;15.83;11.37;;;2.10;1.00;;;;;;5123267;28;20167;-80
2022/12/18 11:31:25;;;;;;;14.80;10.13;;;2.00;1.00;;;;;;5121435;28;20174;-79
2022/12/18 11:33:56;;;;;;;15.80;9.57;;;1.90;1.00;;;;;;5137578;28;20163;-79
2022/12/18 11:36:22;;;;;;;14.13;10.20;;;1.90;1.00;;;;;;5114698;28;20175;-79
2022/12/18 11:38:52;;;;;;;14.80;9.17;;;1.90;1.00;;;;;;5122549;28;20681;-80
2022/12/18 11:44:40;;;;;;;14.33;9.73;;;1.80;1.00;;;;;;5115595;28;20162;-79
2022/12/18 11:47:15;;;;;;;15.23;10.57;;;1.70;1.00;;;;;;5114893;28;20162;-80
2022/12/18 11:49:42;;;;;;;16.37;11.40;;;1.80;1.00;;;;;;5115092;28;20155;-80
2022/12/18 11:52:22;;;;;;;17.00;11.03;;;1.80;1.00;;;;;;5115077;28;20163;-79
2022/12/18 11:54:52;;;;;;;15.10;10.57;;;1.90;1.00;;;;;;5096537;28;20174;-81
2022/12/18 11:58:02;;;;;;;18.30;11.93;;;2.00;1.00;;;;;;5115739;28;20232;-81
2022/12/18 12:00:28;;;;;;;17.47;11.77;;;2.10;1.00;;;;;;5102990;28;20182;-79
2022/12/18 12:03:18;;;;;;;15.77;11.87;;;2.10;1.00;;;;;;5116207;28;20210;-80
2022/12/18 12:06:08;;;;;;;18.57;11.73;;;2.30;1.00;;;;;;5115324;28;20159;-80
2022/12/18 12:08:43;;;;;;;17.77;12.43;;;2.30;1.00;;;;;;5095957;28;20190;-80
2022/12/18 12:11:21;;;;;;;16.97;11.57;;;2.40;1.00;;;;;;5119105;28;20661;-81
2022/12/18 12:14:22;;;;;;;18.13;12.13;;;2.40;1.00;;;;;;5115241;28;20170;-80
2022/12/18 12:17:22;;;;;;;16.97;11.83;;;2.50;1.00;;;;;;5098534;28;20174;-81
2022/12/18 12:20:34;;;;;;;18.33;12.10;;;2.70;1.00;;;;;;5114361;28;20167;-79
2022/12/18 12:23:28;;;;;;;16.47;11.80;;;2.60;1.00;;;;;;5114556;28;20178;-80
2022/12/18 12:26:09;;;;;;;15.80;11.30;;;2.60;1.00;;;;;;5096809;28;20167;-80
2022/12/18 12:28:59;;;;;;;15.33;11.33;;;2.60;1.00;;;;;;5095748;28;20182;-80
2022/12/18 12:31:40;;;;;;;20.43;12.50;;;2.40;1.00;;;;;;5096150;28;20254;-78
2022/12/18 12:34:43;;;;;;;17.47;12.10;;;2.50;1.00;;;;;;5115290;28;20167;-80
2022/12/18 12:37:12;;;;;;;16.33;11.70;;;2.60;1.00;;;;;;5095556;28;20193;-79
2022/12/18 12:39:42;;;;;;;17.27;11.43;;;2.70;1.00;;;;;;5097603;28;20623;-80
2022/12/18 12:45:37;;;;;;;17.53;12.00;;;2.80;1.00;;;;;;5115404;28;20619;-81
2022/12/18 12:48:07;;;;;;;17.77;11.20;;;2.70;1.00;;;;;;5114933;28;20171;-79
2022/12/18 12:50:35;;;;;;;15.37;10.47;;;2.60;1.00;;;;;;5115202;28;20202;-79
2022/12/18 12:53:05;;;;;;;17.67;11.50;;;2.60;1.00;;;;;;5115231;28;20531;-80
2022/12/18 12:55:32;;;;;;;16.07;11.07;;;2.70;1.00;;;;;;5098712;28;20182;-80
2022/12/18 12:58:33;;;;;;;19.20;12.23;;;2.60;1.00;;;;;;5098855;28;20175;-80
2022/12/18 13:01:08;;;;;;;16.50;11.63;;;2.70;1.00;;;;;;5068024;28;20300;-79
2022/12/18 13:03:56;;;;;;;16.93;11.73;;;2.70;1.00;;;;;;5110689;28;20174;-77
2022/12/18 13:06:37;;;;;;;17.53;11.57;;;2.80;1.00;;;;;;5125669;28;20194;-79
2022/12/18 13:09:03;;;;;;;15.90;12.13;;;2.70;1.00;;;;;;5127439;28;20175;-79
2022/12/18 13:14:40;;;;;;;17.73;11.87;;;2.60;1.00;;;;;;5115348;28;20169;-79